Barker, New York
Current Conditions -  °F | °C
As of 5:53 PM on Wednesday 26 Nov 2014 (Local Time) from KIAG Reporting Station
Overcast Overcast  
Wind Chill: 22°   Ceiling: 1800
Heat Index: 31°   Visibility: 10mi
Dew Point: 28°   Wind: 10mph
Humidity: 89%   Direction: 60°ENE
Pressure: 30.07"   Gusts: NA
Location:  43.33°N, 78.55°W
Report Text: KIAG 262253Z 06009KT 10SM SCT011 OVC018 M01/M02 A3007 RMK AO2 SNB10E36 SLP198 P0000 T10061022
Loading
Personal Weather Stations






























Interactive Weather Map New forecast layout! Learn more

10-Day Weather Forecast

Advertisements
Track Severe Weather on mobile